Terminal Aerodrome Forecast
Issued by NWS Sterling, VA

Current Version | Previous Version | Graphics & Text | Print | Product List | Glossary On
Versions: 1 2 3 4 5 6 7 8 9 10 11 12 13 14 15 16 17 18 19 20 21
000
FTUS41 KLWX 170521
TAFMRB
TAF
KMRB 170521Z 1706/1806 00000KT 4SM BR SCT050
      TEMPO 1706/1708 1SM BR BKN001
     FM170800 00000KT 1SM BR BKN001
      TEMPO 1708/1712 3SM BR SCT001 SCT050
     FM171200 00000KT P6SM SCT040
     FM171800 16005KT P6SM -SHRA OVC040=

USA.gov is the U.S. government's official web portal to all federal, state and local government web resources and services.